Time;durP1;ratioP1;P1;durP2;ratioP2;P2;SDS_P1;SDS_P2;PMS_P1;PMS_P2;Temp;Humidity;BMP_temperature;BMP_pressure;BME280_temperature;BME280_humidity;BME280_pressure;Samples;Min_cycle;Max_cycle;Signal;HPM_P1;HPM_P2
2023/05/19 00:00:30;;;;;;;11.50;3.30;;;;;;;10.30;76.63;100928.14;218907;1257;140455;-69
2023/05/19 00:05:53;;;;;;;3.50;2.80;;;;;;;10.27;76.91;100931.67;218123;1256;252855;-68
2023/05/19 00:10:58;;;;;;;7.10;3.70;;;;;;;10.19;76.70;100928.19;218309;1257;139771;-67
2023/05/19 00:16:05;;;;;;;6.50;3.40;;;;;;;10.15;77.13;100925.79;219136;1257;143529;-67
2023/05/19 00:21:09;;;;;;;6.00;3.30;;;;;;;10.10;77.39;100924.83;218979;1257;140977;-66
2023/05/19 00:26:14;;;;;;;6.20;3.70;;;;;;;10.11;77.75;100924.70;220736;1254;142652;-69
2023/05/19 00:31:20;;;;;;;3.50;3.20;;;;;;;10.15;77.99;100931.48;218967;1258;140858;-68
2023/05/19 00:36:24;;;;;;;6.30;4.70;;;;;;;10.18;78.04;100932.98;220060;1259;140490;-69
2023/05/19 00:41:29;;;;;;;8.00;3.10;;;;;;;10.15;77.89;100927.18;219899;1258;140245;-67
2023/05/19 00:46:33;;;;;;;4.50;4.20;;;;;;;10.10;77.80;100923.55;220476;1258;140606;-67
2023/05/19 00:51:39;;;;;;;5.90;2.80;;;;;;;10.09;78.01;100920.48;219220;1255;140987;-66
2023/05/19 00:56:44;;;;;;;4.90;4.20;;;;;;;10.04;78.08;100919.15;218815;1258;140078;-67
2023/05/19 01:01:49;;;;;;;5.10;4.10;;;;;;;10.01;78.44;100923.36;218040;1257;139843;-66
2023/05/19 01:06:55;;;;;;;4.90;4.10;;;;;;;10.00;78.58;100922.98;219172;1258;140265;-66
2023/05/19 01:12:01;;;;;;;6.40;4.60;;;;;;;10.00;78.75;100920.57;218289;1258;141528;-66
2023/05/19 01:17:21;;;;;;;6.80;4.80;;;;;;;9.97;78.75;100921.26;218194;1254;141158;-66
2023/05/19 01:22:53;;;;;;;6.30;4.10;;;;;;;9.94;78.71;100928.45;218447;1259;141096;-66
2023/05/19 01:28:16;;;;;;;5.30;4.70;;;;;;;9.88;79.02;100926.27;218610;1258;142345;-65
2023/05/19 01:33:23;;;;;;;6.10;5.10;;;;;;;9.85;79.00;100927.61;218308;1259;140686;-66
2023/05/19 01:38:28;;;;;;;6.50;5.90;;;;;;;9.84;79.30;100928.17;218000;1259;144452;-65
2023/05/19 01:43:33;;;;;;;8.80;6.30;;;;;;;9.83;79.41;100931.81;218320;1254;139776;-65
2023/05/19 01:48:40;;;;;;;13.30;7.40;;;;;;;9.81;79.51;100931.33;218177;1258;140080;-66
2023/05/19 01:53:45;;;;;;;9.10;7.20;;;;;;;9.81;79.79;100931.36;218979;1258;139887;-66
2023/05/19 01:59:03;;;;;;;12.90;6.30;;;;;;;9.78;79.68;100936.85;218320;1259;139423;-68
2023/05/19 02:04:42;;;;;;;9.70;5.90;;;;;;;9.74;79.98;100929.93;219148;1259;151430;-68
2023/05/19 02:10:09;;;;;;;13.00;7.30;;;;;;;9.75;80.21;100928.02;219489;1258;140411;-66
2023/05/19 02:15:21;;;;;;;;;;;;;;;9.76;80.27;100925.27;219785;1254;140587;-66
2023/05/19 02:20:25;;;;;;;10.90;6.30;;;;;;;9.72;80.18;100919.02;220732;1255;126507;-68
2023/05/19 02:25:30;;;;;;;8.40;6.20;;;;;;;9.73;80.29;100919.73;220841;1254;140144;-67
2023/05/19 02:30:35;;;;;;;8.00;4.90;;;;;;;9.74;80.27;100918.55;219848;1255;139782;-67
2023/05/19 02:35:39;;;;;;;7.10;5.60;;;;;;;9.75;80.34;100921.05;219541;1257;140744;-66
2023/05/19 02:40:43;;;;;;;7.10;6.40;;;;;;;9.80;80.45;100915.86;219572;1258;141433;-67
2023/05/19 02:45:47;;;;;;;7.70;5.80;;;;;;;9.81;80.50;100915.39;219921;1254;238072;-69
2023/05/19 02:50:53;;;;;;;5.60;5.10;;;;;;;9.78;80.29;100916.83;218872;1259;141061;-67
2023/05/19 02:55:58;;;;;;;5.80;5.20;;;;;;;9.69;80.38;100916.02;218961;1258;139560;-68
2023/05/19 03:01:03;;;;;;;7.60;5.70;;;;;;;9.67;80.55;100910.08;218264;1254;140613;-67
2023/05/19 03:06:08;;;;;;;6.80;5.70;;;;;;;9.69;81.08;100914.06;218441;1258;139934;-67
2023/05/19 03:11:14;;;;;;;10.10;7.20;;;;;;;9.71;81.23;100914.02;218242;1254;139729;-68
2023/05/19 03:16:19;;;;;;;9.00;7.10;;;;;;;9.71;81.24;100916.36;218853;1254;140068;-67
2023/05/19 03:21:23;;;;;;;7.40;6.80;;;;;;;9.73;81.47;100917.73;218905;1254;140472;-67
2023/05/19 03:26:28;;;;;;;8.30;6.50;;;;;;;9.75;81.60;100915.23;218469;1254;350564;-68
2023/05/19 03:31:32;;;;;;;8.90;6.60;;;;;;;9.76;81.58;100914.45;217990;1254;140306;-67
2023/05/19 03:36:38;;;;;;;7.30;5.20;;;;;;;9.79;81.60;100910.30;217894;1254;140327;-66
2023/05/19 03:41:42;;;;;;;7.60;6.00;;;;;;;9.80;81.86;100911.69;218096;1254;139765;-66
2023/05/19 03:46:49;;;;;;;5.70;5.10;;;;;;;9.81;81.82;100907.08;218748;1254;140254;-66
2023/05/19 03:51:54;;;;;;;6.90;6.10;;;;;;;9.80;82.24;100909.65;218933;1255;140556;-67
2023/05/19 03:56:59;;;;;;;6.90;5.80;;;;;;;9.80;81.96;100913.01;217979;1254;141354;-66
2023/05/19 04:02:04;;;;;;;8.10;5.80;;;;;;;9.83;81.99;100912.69;219625;1254;140692;-68
2023/05/19 04:07:08;;;;;;;8.20;6.00;;;;;;;9.85;82.13;100914.13;220123;1254;139841;-68
2023/05/19 04:12:12;;;;;;;10.60;7.90;;;;;;;9.89;82.03;100917.74;217698;1257;139914;-67
2023/05/19 04:17:17;;;;;;;9.50;7.70;;;;;;;9.92;81.97;100918.20;220443;1256;142133;-69
2023/05/19 04:22:21;;;;;;;7.50;6.70;;;;;;;9.96;81.99;100917.73;220681;1256;142559;-69
2023/05/19 04:27:27;;;;;;;7.20;6.20;;;;;;;10.03;82.17;100925.09;220619;1256;140398;-66
2023/05/19 04:32:32;;;;;;;5.90;5.50;;;;;;;10.08;81.99;100920.99;219961;1256;139706;-69
2023/05/19 04:37:37;;;;;;;6.60;5.30;;;;;;;10.13;81.84;100922.59;219890;1257;140782;-71
2023/05/19 04:42:44;;;;;;;7.80;7.00;;;;;;;10.17;81.73;100922.48;220262;1257;142560;-70
2023/05/19 04:47:51;;;;;;;7.10;6.40;;;;;;;10.19;81.57;100921.95;219641;1256;140966;-65
2023/05/19 04:52:57;;;;;;;8.10;7.30;;;;;;;10.20;81.63;100921.61;217985;1257;140409;-64
2023/05/19 04:58:01;;;;;;;7.00;6.40;;;;;;;10.21;81.71;100925.17;219331;1259;139901;-67
2023/05/19 05:03:05;;;;;;;8.40;7.60;;;;;;;10.22;81.72;100925.84;217875;1259;140209;-64
2023/05/19 05:08:11;;;;;;;8.40;6.60;;;;;;;10.24;81.83;100923.26;218675;1257;140875;-66
2023/05/19 05:13:15;;;;;;;25.60;7.30;;;;;;;10.30;81.92;100916.25;218705;1260;140026;-65
2023/05/19 05:18:20;;;;;;;5.80;5.10;;;;;;;10.37;81.96;100910.73;218165;1257;141508;-65
2023/05/19 05:23:26;;;;;;;5.50;4.90;;;;;;;10.47;81.97;100910.38;217819;1259;140191;-65
2023/05/19 05:28:31;;;;;;;7.00;6.00;;;;;;;10.58;81.92;100906.98;218293;1257;141075;-68
2023/05/19 05:33:37;;;;;;;9.50;6.30;;;;;;;10.68;81.81;100906.25;219404;1257;140725;-70
2023/05/19 05:38:42;;;;;;;7.40;5.90;;;;;;;10.74;81.67;100905.73;218970;1256;140108;-68
2023/05/19 05:43:46;;;;;;;6.00;5.30;;;;;;;10.83;81.63;100906.66;219331;1256;139965;-67
2023/05/19 05:48:54;;;;;;;9.50;5.10;;;;;;;10.92;81.55;100910.60;219387;1260;141133;-67
2023/05/19 05:54:01;;;;;;;7.40;6.60;;;;;;;11.04;81.51;100903.63;217879;1259;140920;-65
2023/05/19 05:59:06;;;;;;;7.00;5.70;;;;;;;11.14;81.32;100906.59;218253;1257;140882;-65
2023/05/19 06:04:10;;;;;;;6.00;4.70;;;;;;;11.20;81.15;100899.23;220049;1256;141066;-66
2023/05/19 06:09:15;;;;;;;5.70;4.70;;;;;;;11.22;80.90;100898.53;218491;1256;140198;-64
2023/05/19 06:14:20;;;;;;;6.20;3.20;;;;;;;11.28;80.80;100907.23;220554;1256;141773;-65
2023/05/19 06:19:25;;;;;;;5.60;3.90;;;;;;;11.37;80.67;100909.75;220454;1256;142649;-67
2023/05/19 06:24:30;;;;;;;3.60;2.90;;;;;;;11.50;80.73;100913.50;219677;1256;140509;-68
2023/05/19 06:29:34;;;;;;;5.20;4.80;;;;;;;11.65;80.36;100921.05;220475;1256;140704;-63
2023/05/19 06:34:39;;;;;;;3.50;2.90;;;;;;;11.74;79.80;100914.38;219209;1256;140730;-64
2023/05/19 06:39:44;;;;;;;4.50;3.70;;;;;;;11.88;79.71;100923.95;220130;1256;141774;-65
2023/05/19 06:44:49;;;;;;;5.20;3.40;;;;;;;11.98;79.59;100926.75;219075;1255;140501;-64
2023/05/19 06:49:54;;;;;;;5.00;3.70;;;;;;;12.01;78.98;100922.25;218747;1256;140145;-66
2023/05/19 06:54:58;;;;;;;3.20;2.50;;;;;;;12.05;79.05;100917.38;218896;1256;140028;-66
2023/05/19 07:00:05;;;;;;;3.30;2.40;;;;;;;12.05;78.88;100916.96;218783;1257;141214;-66
2023/05/19 07:05:10;;;;;;;4.60;2.80;;;;;;;12.03;78.67;100918.87;218896;1259;140182;-67
2023/05/19 07:10:15;;;;;;;3.60;3.10;;;;;;;12.04;78.73;100921.00;218536;1256;140534;-68
2023/05/19 07:15:21;;;;;;;3.60;3.30;;;;;;;12.09;78.47;100923.11;218529;1259;140900;-69
2023/05/19 07:20:25;;;;;;;4.80;3.10;;;;;;;12.15;78.40;100921.31;218427;1255;140259;-69
2023/05/19 07:25:30;;;;;;;3.90;3.50;;;;;;;12.23;78.35;100919.90;218590;1256;140409;-72
2023/05/19 07:30:34;;;;;;;5.50;3.70;;;;;;;12.28;77.82;100918.08;219123;1255;140590;-64
2023/05/19 07:35:41;;;;;;;2.80;2.60;;;;;;;12.42;77.76;100918.67;217739;1256;139680;-72
2023/05/19 07:40:47;;;;;;;2.80;2.50;;;;;;;12.71;77.63;100915.26;218158;1259;141017;-78
2023/05/19 07:45:54;;;;;;;2.90;2.70;;;;;;;12.92;77.16;100912.09;218242;1257;140175;-72
2023/05/19 07:50:59;;;;;;;2.70;2.40;;;;;;;12.99;76.70;100920.63;218746;1255;141003;-71
2023/05/19 07:56:03;;;;;;;3.70;1.90;;;;;;;12.92;75.95;100919.80;217702;1257;140615;-71
2023/05/19 08:01:07;;;;;;;3.50;2.40;;;;;;;12.88;75.59;100923.27;218747;1256;140787;-69
2023/05/19 08:06:12;;;;;;;2.30;1.80;;;;;;;12.90;75.34;100919.96;220661;1256;140686;-72
2023/05/19 08:11:17;;;;;;;4.50;2.20;;;;;;;12.92;75.13;100915.91;220616;1255;140989;-71
2023/05/19 08:16:23;;;;;;;2.60;2.40;;;;;;;12.89;74.92;100908.70;220510;1256;141441;-68
2023/05/19 08:21:27;;;;;;;4.50;2.20;;;;;;;12.85;74.51;100909.36;220622;1255;141583;-69
2023/05/19 08:26:32;;;;;;;2.60;2.40;;;;;;;12.74;74.35;100905.85;219780;1256;140882;-68
2023/05/19 08:31:40;;;;;;;5.20;2.30;;;;;;;12.67;74.39;100906.66;220741;1256;141317;-68
2023/05/19 08:36:44;;;;;;;2.40;2.20;;;;;;;12.59;74.11;100914.05;219489;1256;141070;-67
2023/05/19 08:41:49;;;;;;;1.30;1.30;;;;;;;12.54;74.19;100915.52;219491;1256;140010;-68
2023/05/19 08:46:57;;;;;;;2.80;2.00;;;;;;;12.52;74.33;100917.98;218985;1257;140233;-66
2023/05/19 08:52:22;;;;;;;1.80;1.30;;;;;;;12.53;74.51;100911.10;218967;1257;140765;-67
2023/05/19 08:57:28;;;;;;;1.50;1.40;;;;;;;12.50;74.27;100912.53;219187;1256;140637;-67
2023/05/19 09:02:37;;;;;;;2.00;1.90;;;;;;;12.55;74.62;100913.35;219041;1256;142547;-70
2023/05/19 09:08:03;;;;;;;4.00;1.70;;;;;;;12.66;74.39;100912.27;218148;1257;140520;-71
2023/05/19 09:13:09;;;;;;;2.10;1.70;;;;;;;12.63;74.26;100909.48;218377;1258;141068;-67
2023/05/19 09:18:14;;;;;;;2.40;2.20;;;;;;;12.60;74.41;100914.36;217796;1255;140236;-69
2023/05/19 09:23:19;;;;;;;4.90;2.00;;;;;;;12.71;74.30;100913.86;218502;1257;141894;-66
2023/05/19 09:28:26;;;;;;;7.70;2.10;;;;;;;12.94;74.13;100903.50;217835;1256;140446;-70
2023/05/19 09:33:35;;;;;;;;;;;;;;;13.06;73.89;100904.05;218701;1256;141105;-69
2023/05/19 09:38:39;;;;;;;3.90;3.50;;;;;;;13.02;73.76;100913.48;219889;1259;127009;-71
2023/05/19 09:43:57;;;;;;;2.20;1.90;;;;;;;12.97;73.72;100915.74;219443;1256;140690;-70
2023/05/19 09:49:10;;;;;;;;;;;;;;;12.90;73.50;100914.91;218055;1256;140137;-69
2023/05/19 09:54:15;;;;;;;2.70;2.00;;;;;;;12.94;73.71;100913.39;219347;1256;127288;-67
2023/05/19 09:59:24;;;;;;;3.60;2.10;;;;;;;13.11;73.70;100907.50;219495;1255;142112;-70
2023/05/19 10:04:30;;;;;;;2.30;1.90;;;;;;;13.22;73.44;100908.41;219587;1255;141134;-67
2023/05/19 10:09:37;;;;;;;5.30;2.10;;;;;;;13.34;73.19;100899.02;220210;1255;141083;-67
2023/05/19 10:14:41;;;;;;;2.70;2.40;;;;;;;13.39;73.03;100902.46;220548;1256;141737;-68
2023/05/19 10:19:49;;;;;;;2.60;2.30;;;;;;;13.24;72.60;100908.35;220639;1255;141661;-68
2023/05/19 10:24:56;;;;;;;5.40;3.10;;;;;;;13.12;72.73;100901.06;220474;1255;140757;-67
2023/05/19 10:30:36;;;;;;;4.30;2.80;;;;;;;13.14;72.79;100889.59;220309;1256;141719;-68
2023/05/19 10:36:07;;;;;;;3.50;3.20;;;;;;;13.22;72.66;100893.21;219263;1256;141243;-68
2023/05/19 10:41:35;;;;;;;7.10;2.90;;;;;;;13.28;72.99;100887.89;218071;1257;139818;-66
2023/05/19 10:46:41;;;;;;;3.80;3.10;;;;;;;13.28;72.77;100884.63;218720;1256;140682;-67
2023/05/19 10:51:47;;;;;;;5.10;3.30;;;;;;;13.25;72.82;100885.52;219060;1256;140366;-68
2023/05/19 10:56:57;;;;;;;2.90;2.70;;;;;;;13.17;72.82;100892.31;219992;1255;140450;-68
2023/05/19 11:02:07;;;;;;;7.50;4.10;;;;;;;13.10;72.65;100893.92;217417;1257;142986;-69
2023/05/19 11:07:21;;;;;;;5.40;4.40;;;;;;;13.23;72.80;100891.73;219644;1255;141048;-69
2023/05/19 11:12:28;;;;;;;7.80;3.80;;;;;;;13.35;72.82;100896.29;218634;1256;141875;-69
2023/05/19 11:17:38;;;;;;;5.60;3.60;;;;;;;13.35;72.59;100901.64;218437;1256;140111;-69
2023/05/19 11:23:05;;;;;;;5.40;3.80;;;;;;;13.34;72.75;100902.52;218986;1257;141073;-68
2023/05/19 11:28:26;;;;;;;8.00;4.30;;;;;;;13.36;72.79;100900.64;219006;1255;141414;-72
2023/05/19 11:33:36;;;;;;;6.60;5.00;;;;;;;13.32;72.59;100902.09;219371;1255;140805;-74
2023/05/19 11:38:50;;;;;;;6.40;5.30;;;;;;;13.28;72.60;100901.11;218278;1256;141364;-69
2023/05/19 11:43:59;;;;;;;;;;;;;;;13.21;72.52;100903.52;219983;1255;141426;-69
2023/05/19 11:49:12;;;;;;;5.50;4.50;;;;;;;13.19;72.80;100900.99;218495;1259;127307;-68
2023/05/19 11:54:35;;;;;;;4.60;4.20;;;;;;;13.25;72.74;100898.17;218651;1256;141071;-68
2023/05/19 11:59:44;;;;;;;4.00;3.60;;;;;;;13.28;72.79;100903.73;220085;1256;139980;-71
2023/05/19 12:04:51;;;;;;;7.00;4.60;;;;;;;13.33;72.86;100901.51;217749;1259;139701;-70
2023/05/19 12:09:59;;;;;;;10.30;4.50;;;;;;;13.36;73.00;100903.37;220495;1256;141020;-67
2023/05/19 12:15:03;;;;;;;7.40;4.30;;;;;;;13.40;72.97;100906.70;220558;1256;140554;-68
2023/05/19 12:20:10;;;;;;;6.60;4.00;;;;;;;13.44;72.82;100905.71;220118;1255;140960;-68
2023/05/19 12:25:16;;;;;;;6.40;4.30;;;;;;;13.45;72.66;100903.29;220542;1257;139720;-76
2023/05/19 12:30:29;;;;;;;5.50;4.50;;;;;;;13.42;72.52;100904.41;219594;1256;140141;-79
2023/05/19 12:35:38;;;;;;;9.90;5.80;;;;;;;13.37;72.36;100904.34;218980;1256;140622;-67
2023/05/19 12:40:45;;;;;;;8.40;6.20;;;;;;;13.36;72.47;100904.81;219224;1256;140056;-73
2023/05/19 12:45:53;;;;;;;8.70;6.70;;;;;;;13.32;72.53;100895.83;217987;1259;140253;-68
2023/05/19 12:50:59;;;;;;;7.60;6.80;;;;;;;13.30;72.91;100894.86;218739;1256;140725;-76
2023/05/19 12:56:15;;;;;;;8.90;6.30;;;;;;;13.31;72.76;100891.77;219333;1257;139943;-75
2023/05/19 13:01:22;;;;;;;6.70;5.30;;;;;;;13.34;73.09;100887.36;218111;1256;140280;-72
2023/05/19 13:06:29;;;;;;;6.30;4.90;;;;;;;13.41;73.07;100892.22;218536;1255;140129;-72
2023/05/19 13:11:36;;;;;;;8.00;5.90;;;;;;;13.48;73.23;100896.89;217953;1257;210888;-69
2023/05/19 13:16:42;;;;;;;8.40;5.40;;;;;;;13.51;72.97;100895.33;218759;1257;141788;-68
2023/05/19 13:21:50;;;;;;;9.20;6.00;;;;;;;13.46;72.88;100894.17;217730;1257;140208;-68
2023/05/19 13:26:56;;;;;;;7.50;6.70;;;;;;;13.39;72.72;100890.77;218479;1257;140369;-68
2023/05/19 13:32:02;;;;;;;10.50;6.40;;;;;;;13.36;73.10;100887.63;217836;1255;141443;-67
2023/05/19 13:37:10;;;;;;;9.20;5.10;;;;;;;13.34;72.85;100888.59;218013;1257;141580;-67
2023/05/19 13:42:19;;;;;;;7.30;5.90;;;;;;;13.28;73.15;100884.75;218345;1255;139879;-67
2023/05/19 13:47:24;;;;;;;11.40;8.70;;;;;;;13.27;73.20;100882.58;218291;1259;141590;-67
2023/05/19 13:52:29;;;;;;;6.70;5.60;;;;;;;13.29;73.47;100882.98;218790;1257;140100;-68
2023/05/19 13:57:35;;;;;;;9.30;6.40;;;;;;;13.26;73.46;100883.33;217893;1258;141535;-67
2023/05/19 14:02:41;;;;;;;10.10;8.60;;;;;;;13.25;73.49;100877.41;219420;1256;140045;-69
2023/05/19 14:07:47;;;;;;;11.00;8.20;;;;;;;13.29;73.47;100876.42;220453;1257;140849;-69
2023/05/19 14:12:54;;;;;;;10.80;9.00;;;;;;;13.32;73.67;100876.64;219415;1257;141865;-79
2023/05/19 14:18:20;;;;;;;11.80;8.90;;;;;;;13.39;73.84;100874.70;220355;1256;140907;-68
2023/05/19 14:23:29;;;;;;;11.30;8.50;;;;;;;13.48;73.79;100868.84;220368;1257;140932;-67
2023/05/19 14:28:37;;;;;;;13.70;8.00;;;;;;;13.58;73.34;100873.17;220419;1256;141206;-69
2023/05/19 14:33:42;;;;;;;11.20;8.10;;;;;;;13.68;73.58;100872.74;219390;1256;140589;-68
2023/05/19 14:38:47;;;;;;;7.70;7.00;;;;;;;13.81;73.51;100875.03;218839;1257;140788;-70
2023/05/19 14:43:53;;;;;;;9.10;7.50;;;;;;;13.90;73.11;100876.76;218297;1257;139852;-68
2023/05/19 14:48:58;;;;;;;10.90;7.80;;;;;;;13.87;73.13;100872.71;217767;1257;143313;-68
2023/05/19 14:54:07;;;;;;;13.50;8.30;;;;;;;13.78;73.10;100877.33;218546;1256;140404;-68
2023/05/19 14:59:15;;;;;;;7.70;6.90;;;;;;;13.69;73.08;100881.84;217602;1257;142300;-66
2023/05/19 15:04:24;;;;;;;10.80;7.40;;;;;;;13.68;73.32;100879.72;218301;1259;141471;-67
2023/05/19 15:09:30;;;;;;;8.70;5.80;;;;;;;13.71;73.36;100873.81;218234;1256;140927;-65
2023/05/19 15:14:38;;;;;;;7.30;6.60;;;;;;;13.67;73.49;100879.06;217599;1259;139910;-64
2023/05/19 15:19:44;;;;;;;8.80;7.10;;;;;;;13.65;73.63;100884.30;217946;1256;139790;-64
2023/05/19 15:24:51;;;;;;;10.90;7.20;;;;;;;13.68;73.86;100884.91;217745;1256;890103;-69
2023/05/19 15:29:58;;;;;;;9.90;6.10;;;;;;;13.69;73.63;100881.19;218045;1256;140228;-71
2023/05/19 15:35:04;;;;;;;7.70;6.90;;;;;;;13.60;73.80;100882.94;218417;1254;141086;-67
2023/05/19 15:40:14;;;;;;;10.90;7.60;;;;;;;13.53;73.73;100878.54;217938;1257;140384;-66
2023/05/19 15:45:21;;;;;;;11.70;7.40;;;;;;;13.42;73.90;100876.52;219576;1259;141209;-66
2023/05/19 15:50:28;;;;;;;12.60;7.90;;;;;;;13.37;73.78;100875.59;219125;1257;141070;-66
2023/05/19 15:55:34;;;;;;;14.00;9.90;;;;;;;13.35;74.09;100876.14;218893;1258;250790;-72
2023/05/19 16:00:39;;;;;;;8.90;7.90;;;;;;;13.40;74.05;100871.40;219366;1257;140862;-66
2023/05/19 16:05:52;;;;;;;9.80;8.10;;;;;;;13.40;73.90;100866.27;219493;1254;141179;-74
2023/05/19 16:11:00;;;;;;;10.80;8.40;;;;;;;13.44;74.30;100869.36;219633;1258;141105;-71
2023/05/19 16:16:05;;;;;;;16.00;8.90;;;;;;;13.44;74.27;100870.02;220393;1257;142342;-71
2023/05/19 16:21:11;;;;;;;15.70;10.50;;;;;;;13.44;74.20;100869.11;217754;1257;140550;-70
2023/05/19 16:26:17;;;;;;;9.60;7.90;;;;;;;13.42;74.34;100866.59;220303;1256;142331;-72
2023/05/19 16:31:23;;;;;;;11.50;8.90;;;;;;;13.35;74.26;100871.58;218744;1257;141493;-69
2023/05/19 16:36:30;;;;;;;16.50;11.20;;;;;;;13.31;74.66;100877.89;220440;1254;141854;-69
2023/05/19 16:41:38;;;;;;;16.40;10.30;;;;;;;13.29;74.81;100877.13;218498;1259;140523;-71
2023/05/19 16:46:44;;;;;;;11.10;9.20;;;;;;;13.26;74.73;100873.61;219197;1254;140905;-71
2023/05/19 16:51:51;;;;;;;14.90;11.80;;;;;;;13.24;74.86;100872.85;218588;1257;140942;-70
2023/05/19 16:57:02;;;;;;;11.50;9.50;;;;;;;13.23;75.00;100872.41;219372;1257;140870;-70
2023/05/19 17:02:07;;;;;;;13.90;9.70;;;;;;;13.22;74.89;100875.54;218471;1259;141877;-70
2023/05/19 17:07:16;;;;;;;12.80;9.90;;;;;;;13.24;75.06;100881.38;217700;1259;140282;-67
2023/05/19 17:12:20;;;;;;;19.90;10.50;;;;;;;13.26;74.98;100878.38;217666;1257;140140;-71
2023/05/19 17:17:26;;;;;;;13.90;12.10;;;;;;;13.28;75.46;100884.17;218402;1257;140558;-77
2023/05/19 17:22:31;;;;;;;13.60;11.10;;;;;;;13.28;75.36;100884.83;218485;1257;140809;-70
2023/05/19 17:27:37;;;;;;;19.20;13.30;;;;;;;13.31;75.62;100886.03;218911;1257;140495;-71
2023/05/19 17:32:43;;;;;;;15.20;11.10;;;;;;;13.32;75.40;100883.97;217813;1259;144310;-74
2023/05/19 17:37:48;;;;;;;18.00;13.00;;;;;;;13.30;75.72;100881.84;217694;1259;140334;-72
2023/05/19 17:42:55;;;;;;;17.80;13.20;;;;;;;13.26;75.50;100878.73;218384;1259;142231;-71
2023/05/19 17:48:00;;;;;;;17.20;10.20;;;;;;;13.25;75.63;100878.98;218869;1257;140305;-72
2023/05/19 17:53:05;;;;;;;15.20;9.70;;;;;;;13.22;75.90;100873.45;218503;1257;140141;-77
2023/05/19 17:58:11;;;;;;;15.00;9.70;;;;;;;13.15;75.64;100878.29;217556;1257;140386;-68
2023/05/19 18:03:17;;;;;;;10.50;9.40;;;;;;;13.08;75.83;100880.47;218952;1257;142323;-69
2023/05/19 18:08:23;;;;;;;9.80;8.00;;;;;;;13.00;76.13;100876.06;218460;1257;141485;-70
2023/05/19 18:13:30;;;;;;;15.20;10.20;;;;;;;12.95;76.10;100880.98;220387;1257;139960;-71
2023/05/19 18:18:38;;;;;;;17.30;9.40;;;;;;;12.90;76.29;100878.96;218376;1257;140725;-69
2023/05/19 18:23:45;;;;;;;14.40;8.60;;;;;;;12.83;76.51;100876.63;220248;1256;140124;-78
2023/05/19 18:28:51;;;;;;;14.10;9.30;;;;;;;12.79;76.67;100883.20;220572;1257;140597;-72
2023/05/19 18:33:56;;;;;;;13.00;8.50;;;;;;;12.79;76.88;100893.84;220423;1257;140954;-70
2023/05/19 18:39:03;;;;;;;12.70;9.50;;;;;;;12.80;76.89;100901.81;220146;1256;140086;-71
2023/05/19 18:44:10;;;;;;;13.80;10.50;;;;;;;12.81;76.92;100903.98;219833;1257;140218;-65
2023/05/19 18:49:16;;;;;;;22.70;12.30;;;;;;;12.81;77.35;100907.56;219264;1259;141851;-66
2023/05/19 18:54:21;;;;;;;16.60;11.20;;;;;;;12.81;77.38;100909.86;218682;1259;142482;-68
2023/05/19 18:59:26;;;;;;;12.60;9.40;;;;;;;12.80;77.56;100911.27;217701;1259;140463;-68
2023/05/19 19:04:30;;;;;;;19.50;11.70;;;;;;;12.77;77.56;100914.02;218091;1260;140585;-73
2023/05/19 19:09:35;;;;;;;16.10;11.30;;;;;;;12.73;77.85;100910.39;218527;1257;163911;-67
2023/05/19 19:14:41;;;;;;;19.00;10.70;;;;;;;12.69;78.11;100906.60;218010;1257;140961;-66
2023/05/19 19:19:46;;;;;;;21.90;13.20;;;;;;;12.66;78.24;100909.26;219038;1258;140550;-69
2023/05/19 19:24:51;;;;;;;22.30;12.30;;;;;;;12.63;78.39;100900.88;218386;1257;141345;-64
2023/05/19 19:29:57;;;;;;;18.40;12.00;;;;;;;12.60;78.39;100906.13;217704;1259;141339;-65
2023/05/19 19:35:01;;;;;;;24.80;13.70;;;;;;;12.56;78.60;100905.09;218711;1258;140926;-66
2023/05/19 19:40:08;;;;;;;23.20;14.60;;;;;;;12.54;78.94;100904.27;218045;1259;141333;-67
2023/05/19 19:45:12;;;;;;;19.30;15.90;;;;;;;12.52;79.09;100913.79;218417;1259;141291;-68
2023/05/19 19:50:19;;;;;;;37.40;16.10;;;;;;;12.49;78.94;100911.72;218708;1258;141538;-67
2023/05/19 19:55:24;;;;;;;21.70;13.70;;;;;;;12.47;79.27;100916.88;218984;1257;140759;-67
2023/05/19 20:00:29;;;;;;;21.30;12.30;;;;;;;12.46;79.28;100921.81;217688;1259;140386;-68
2023/05/19 20:05:36;;;;;;;25.00;14.10;;;;;;;12.46;79.40;100928.48;220490;1259;142260;-70
2023/05/19 20:10:41;;;;;;;;;;;;;;;12.43;79.26;100931.18;218651;1257;141034;-69
2023/05/19 20:15:46;;;;;;;18.80;13.30;;;;;;;12.38;79.71;100932.98;219492;1257;127509;-66
2023/05/19 20:20:51;;;;;;;21.10;14.70;;;;;;;12.35;79.56;100934.48;220328;1259;230340;-67
2023/05/19 20:25:57;;;;;;;22.60;14.90;;;;;;;12.35;79.83;100932.75;219865;1256;140545;-67
2023/05/19 20:31:15;;;;;;;17.90;14.60;;;;;;;12.35;79.60;100937.65;219434;1257;142187;-69
2023/05/19 20:36:19;;;;;;;18.40;13.50;;;;;;;12.35;79.96;100935.67;219401;1257;142580;-67
2023/05/19 20:41:23;;;;;;;18.50;13.50;;;;;;;12.35;80.16;100935.83;218501;1257;140484;-69
2023/05/19 20:46:28;;;;;;;16.50;13.00;;;;;;;12.34;80.23;100935.77;218756;1256;141088;-68
2023/05/19 20:51:33;;;;;;;21.80;13.80;;;;;;;12.31;80.60;100929.98;218993;1260;141232;-68
2023/05/19 20:56:37;;;;;;;19.80;13.50;;;;;;;12.30;80.59;100930.61;217936;1260;140541;-66
2023/05/19 21:01:42;;;;;;;19.20;13.20;;;;;;;12.29;80.50;100933.62;219086;1256;140286;-66
2023/05/19 21:06:46;;;;;;;24.20;15.40;;;;;;;12.28;80.72;100933.74;217756;1260;140398;-66
2023/05/19 21:11:54;;;;;;;19.10;14.20;;;;;;;12.27;80.92;100938.64;218181;1260;140838;-66
2023/05/19 21:17:02;;;;;;;16.70;14.00;;;;;;;12.20;80.72;100936.44;217820;1260;141688;-65
2023/05/19 21:22:08;;;;;;;26.90;16.70;;;;;;;12.15;81.20;100926.28;217871;1260;140219;-64
2023/05/19 21:27:13;;;;;;;16.50;13.90;;;;;;;12.15;81.25;100924.15;218402;1257;141453;-64
2023/05/19 21:32:18;;;;;;;23.60;14.90;;;;;;;12.14;81.41;100927.04;217698;1260;140624;-65
2023/05/19 21:37:23;;;;;;;19.50;15.70;;;;;;;12.12;81.56;100925.23;219317;1257;140599;-65
2023/05/19 21:42:28;;;;;;;20.10;14.70;;;;;;;12.11;81.58;100927.91;218214;1260;142621;-65
2023/05/19 21:47:33;;;;;;;23.30;15.60;;;;;;;12.12;81.93;100931.56;217543;1257;140237;-64
2023/05/19 21:52:37;;;;;;;25.30;15.90;;;;;;;12.12;81.91;100930.78;219280;1256;141654;-67
2023/05/19 21:57:41;;;;;;;21.10;16.00;;;;;;;12.13;82.21;100930.65;218847;1258;142527;-66
2023/05/19 22:02:45;;;;;;;20.80;14.80;;;;;;;12.13;82.01;100928.19;220298;1257;142026;-66
2023/05/19 22:07:50;;;;;;;22.40;16.10;;;;;;;12.13;82.02;100924.61;220427;1257;142041;-67
2023/05/19 22:12:56;;;;;;;22.70;16.00;;;;;;;12.12;82.08;100921.33;220356;1257;141238;-66
2023/05/19 22:18:01;;;;;;;24.00;17.80;;;;;;;12.15;82.07;100916.21;220290;1257;140524;-67
2023/05/19 22:23:07;;;;;;;25.30;17.80;;;;;;;12.16;82.36;100920.06;218254;1257;141073;-65
2023/05/19 22:28:13;;;;;;;27.90;17.60;;;;;;;12.19;82.31;100922.23;219324;1257;142613;-67
2023/05/19 22:33:18;;;;;;;17.80;15.10;;;;;;;12.19;82.53;100924.83;219536;1257;140832;-67
2023/05/19 22:38:23;;;;;;;22.00;16.40;;;;;;;12.20;82.42;100926.13;218114;1260;141070;-68
2023/05/19 22:43:27;;;;;;;18.00;14.20;;;;;;;12.18;82.44;100926.44;219480;1257;140366;-68
2023/05/19 22:48:34;;;;;;;20.30;14.40;;;;;;;12.17;82.54;100923.69;218738;1256;140188;-68
2023/05/19 22:53:41;;;;;;;19.40;14.50;;;;;;;12.17;82.68;100922.70;217795;1260;140964;-68
2023/05/19 22:58:47;;;;;;;20.90;15.30;;;;;;;12.15;82.84;100912.92;217964;1257;140818;-68
2023/05/19 23:03:54;;;;;;;19.90;15.20;;;;;;;12.14;82.97;100910.95;218031;1257;140948;-68
2023/05/19 23:09:03;;;;;;;16.70;13.20;;;;;;;12.13;83.10;100907.76;218318;1256;140413;-66